Time;durP1;ratioP1;P1;durP2;ratioP2;P2;SDS_P1;SDS_P2;PMS_P1;PMS_P2;Temp;Humidity;BMP_temperature;BMP_pressure;BME280_temperature;BME280_humidity;BME280_pressure;Samples;Min_cycle;Max_cycle;Signal;HPM_P1;HPM_P2
2023/10/19 00:02:04;;;;;;;22.47;11.40;;;4.70;99.90;;;;;;2603293;54;20080;31
2023/10/19 00:04:42;;;;;;;20.05;11.07;;;4.70;99.90;;;;;;2603489;54;20089;31
2023/10/19 00:07:23;;;;;;;21.30;10.95;;;4.60;99.90;;;;;;2603586;54;20031;31
2023/10/19 00:09:57;;;;;;;24.55;11.00;;;4.60;99.90;;;;;;2603405;54;20053;31
2023/10/19 00:12:33;;;;;;;19.75;10.70;;;4.60;99.90;;;;;;2602620;54;20097;31
2023/10/19 00:15:12;;;;;;;26.00;10.68;;;4.60;99.90;;;;;;2602802;54;20037;31
2023/10/19 00:17:53;;;;;;;23.15;11.95;;;4.60;99.90;;;;;;2603321;54;20026;31
2023/10/19 00:20:35;;;;;;;20.67;10.88;;;4.60;99.90;;;;;;2603288;54;20053;31
2023/10/19 00:23:14;;;;;;;20.80;10.93;;;4.60;99.90;;;;;;2603038;54;20022;31
2023/10/19 00:25:53;;;;;;;23.55;11.70;;;4.60;99.90;;;;;;2621944;46;20022;31
2023/10/19 00:28:30;;;;;;;20.30;10.65;;;4.60;99.90;;;;;;2603372;54;20057;31
2023/10/19 00:31:08;;;;;;;21.23;10.48;;;4.60;99.90;;;;;;2603290;54;20038;31
2023/10/19 00:33:43;;;;;;;17.08;10.65;;;4.60;99.90;;;;;;2603186;54;20038;31
2023/10/19 00:36:20;;;;;;;24.73;10.75;;;4.60;99.90;;;;;;2603268;54;20026;31
2023/10/19 00:39:00;;;;;;;18.35;10.52;;;4.60;99.90;;;;;;2621627;46;20026;31
2023/10/19 00:41:37;;;;;;;19.58;10.63;;;4.60;99.90;;;;;;2603272;54;20038;31
2023/10/19 00:44:16;;;;;;;22.15;10.60;;;4.60;99.90;;;;;;2603131;54;20036;31
2023/10/19 00:47:00;;;;;;;19.63;10.52;;;4.60;99.90;;;;;;2603244;54;20068;31
2023/10/19 00:49:38;;;;;;;25.95;11.50;;;4.60;99.90;;;;;;2603485;54;20030;31
2023/10/19 00:52:19;;;;;;;19.25;9.93;;;4.50;99.90;;;;;;2603351;54;20026;31
2023/10/19 00:54:58;;;;;;;21.05;10.40;;;4.50;99.90;;;;;;2603395;54;19947;31
2023/10/19 00:57:36;;;;;;;21.10;11.02;;;4.60;99.90;;;;;;2603284;54;20846;31
2023/10/19 01:00:21;;;;;;;20.07;9.93;;;4.60;99.90;;;;;;2603259;54;20912;31
2023/10/19 01:02:59;;;;;;;20.73;9.53;;;4.60;99.90;;;;;;2621692;46;20026;31
2023/10/19 01:05:39;;;;;;;26.40;11.45;;;4.50;99.90;;;;;;2603215;54;20338;31
2023/10/19 01:08:23;;;;;;;21.23;10.63;;;4.50;99.90;;;;;;2603114;54;20100;31
2023/10/19 01:11:04;;;;;;;19.73;10.18;;;4.50;99.90;;;;;;2603163;54;20038;31
2023/10/19 01:13:44;;;;;;;18.45;10.90;;;4.50;99.90;;;;;;2621972;46;20759;31
2023/10/19 01:16:24;;;;;;;19.25;10.30;;;4.40;99.90;;;;;;2603230;54;20023;31
2023/10/19 01:19:06;;;;;;;23.08;11.25;;;4.40;99.90;;;;;;2603261;54;20123;31
2023/10/19 01:21:45;;;;;;;20.70;10.47;;;4.50;99.90;;;;;;2621667;46;20030;31
2023/10/19 01:24:39;;;;;;;21.83;10.30;;;4.40;99.90;;;;;;2603103;54;20328;31
2023/10/19 01:27:22;;;;;;;21.92;10.65;;;4.40;99.90;;;;;;2603178;54;20033;31
2023/10/19 01:30:09;;;;;;;22.52;11.02;;;4.40;99.90;;;;;;2603374;54;20085;31
2023/10/19 01:32:47;;;;;;;19.83;10.10;;;4.30;99.90;;;;;;2602851;54;20109;31
2023/10/19 01:35:26;;;;;;;21.10;10.50;;;4.30;99.90;;;;;;2603154;54;19941;31
2023/10/19 01:38:01;;;;;;;;;;;4.30;99.90;;;;;;2603290;54;20099;31
2023/10/19 01:40:45;;;;;;;20.85;9.45;;;4.30;99.90;;;;;;2603011;54;19993;31
2023/10/19 01:45:57;;;;;;;22.67;10.20;;;4.30;99.90;;;;;;2603294;54;20900;31
2023/10/19 01:48:33;;;;;;;;;;;4.30;99.90;;;;;;2772444;31;21565;31
2023/10/19 01:51:10;;;;;;;21.05;9.60;;;4.20;99.90;;;;;;2603271;54;19935;31
2023/10/19 01:53:44;;;;;;;17.60;10.15;;;4.20;99.90;;;;;;2602809;54;20089;31
2023/10/19 01:56:22;;;;;;;22.10;9.80;;;4.20;99.90;;;;;;2603183;54;20033;31
2023/10/19 01:58:57;;;;;;;26.15;10.57;;;4.10;99.90;;;;;;2621628;46;20026;31
2023/10/19 02:01:36;;;;;;;21.65;10.20;;;4.10;99.90;;;;;;2602940;54;20037;31
2023/10/19 02:04:14;;;;;;;20.50;9.97;;;4.10;99.90;;;;;;2603134;54;20805;31
2023/10/19 02:06:52;;;;;;;19.45;9.68;;;4.10;99.90;;;;;;2603025;54;20112;31
2023/10/19 02:09:29;;;;;;;18.15;10.65;;;4.10;99.90;;;;;;2603260;54;20125;31
2023/10/19 02:12:11;;;;;;;22.98;10.70;;;4.10;99.90;;;;;;2602989;54;20025;31
2023/10/19 02:17:24;;;;;;;24.10;10.50;;;4.10;99.90;;;;;;2617075;47;20030;31
2023/10/19 02:19:58;;;;;;;19.80;9.88;;;4.10;99.90;;;;;;2602726;54;20816;31
2023/10/19 02:22:36;;;;;;;25.27;11.40;;;4.10;99.90;;;;;;2602911;54;20035;31
2023/10/19 02:27:53;;;;;;;20.97;11.53;;;4.10;99.90;;;;;;2717581;39;21470;31
2023/10/19 02:30:28;;;;;;;23.92;12.05;;;4.10;99.90;;;;;;2621430;47;20845;31
2023/10/19 02:33:05;;;;;;;24.40;11.75;;;4.10;99.90;;;;;;2602775;54;20145;31
2023/10/19 02:35:40;;;;;;;24.55;11.68;;;4.10;99.90;;;;;;2602955;54;20045;31
2023/10/19 02:38:16;;;;;;;28.38;11.85;;;4.10;99.90;;;;;;2603042;54;20034;31
2023/10/19 02:40:48;;;;;;;;;;;4.10;99.90;;;;;;2602990;54;20860;31
2023/10/19 02:43:32;;;;;;;23.52;11.63;;;4.10;99.90;;;;;;2602081;54;19954;31
2023/10/19 02:46:05;;;;;;;21.20;11.80;;;4.10;99.90;;;;;;2602786;54;20026;31
2023/10/19 02:48:44;;;;;;;23.90;12.00;;;4.10;99.90;;;;;;2602894;54;20054;31
2023/10/19 02:51:19;;;;;;;23.88;12.27;;;4.10;99.90;;;;;;2602775;54;20882;31
2023/10/19 02:53:56;;;;;;;23.37;11.53;;;4.10;99.90;;;;;;2621329;47;20022;31
2023/10/19 02:56:29;;;;;;;25.75;11.90;;;4.10;99.90;;;;;;2603133;54;20253;31
2023/10/19 02:59:09;;;;;;;23.27;10.95;;;4.10;99.90;;;;;;2602788;54;20882;31
2023/10/19 03:01:44;;;;;;;20.95;11.02;;;4.10;99.90;;;;;;2602764;54;20029;31
2023/10/19 03:04:19;;;;;;;23.10;12.27;;;4.10;99.90;;;;;;2603257;54;20030;31
2023/10/19 03:06:52;;;;;;;25.47;11.77;;;4.10;99.90;;;;;;2603475;54;20742;31
2023/10/19 03:09:31;;;;;;;21.80;11.45;;;4.10;99.90;;;;;;2603488;54;20868;31
2023/10/19 03:12:13;;;;;;;19.75;10.48;;;4.10;99.90;;;;;;2603628;54;20073;31
2023/10/19 03:14:49;;;;;;;23.38;11.85;;;4.10;99.90;;;;;;2603380;54;20038;31
2023/10/19 03:17:24;;;;;;;23.05;11.43;;;4.10;99.90;;;;;;2603635;54;19939;31
2023/10/19 03:19:56;;;;;;;20.85;11.05;;;4.10;99.90;;;;;;2603592;54;20089;31
2023/10/19 03:22:32;;;;;;;24.40;11.93;;;4.10;99.90;;;;;;2603658;54;20080;31
2023/10/19 03:25:48;;;;;;;26.80;12.27;;;4.10;99.90;;;;;;2603649;54;20234;31
2023/10/19 03:28:11;;;;;;;24.23;12.15;;;4.10;99.90;;;;;;2603379;54;20113;31
2023/10/19 03:30:50;;;;;;;28.20;11.90;;;4.10;99.90;;;;;;2621967;46;20029;31
2023/10/19 03:33:27;;;;;;;24.30;13.10;;;4.10;99.90;;;;;;2603403;54;20930;31
2023/10/19 03:36:03;;;;;;;21.63;11.73;;;4.10;99.90;;;;;;2701973;39;21530;31
2023/10/19 03:38:40;;;;;;;27.70;12.40;;;4.10;99.90;;;;;;2603146;54;21696;31
2023/10/19 03:41:15;;;;;;;24.98;12.82;;;4.10;99.90;;;;;;2603305;54;20085;31
2023/10/19 03:43:51;;;;;;;24.97;12.87;;;4.10;99.90;;;;;;2622203;46;20034;31
2023/10/19 03:46:31;;;;;;;26.77;13.23;;;4.10;99.90;;;;;;2621651;46;20321;31
2023/10/19 03:49:10;;;;;;;32.58;13.73;;;4.10;99.90;;;;;;2603440;54;20034;31
2023/10/19 03:51:58;;;;;;;23.58;12.07;;;4.10;99.90;;;;;;2701945;39;21531;31
2023/10/19 03:54:37;;;;;;;23.15;12.45;;;4.10;99.90;;;;;;2603347;54;20031;31
2023/10/19 03:57:14;;;;;;;25.95;13.00;;;4.00;99.90;;;;;;2603357;54;20034;31
2023/10/19 03:59:55;;;;;;;25.63;14.32;;;4.10;99.90;;;;;;2603439;54;20117;31
2023/10/19 04:02:37;;;;;;;25.30;11.67;;;4.10;99.90;;;;;;2603189;54;20038;31
2023/10/19 04:05:15;;;;;;;27.17;12.65;;;4.10;99.90;;;;;;2603616;54;20243;31
2023/10/19 04:07:54;;;;;;;29.40;12.63;;;4.10;99.90;;;;;;2603169;54;20022;31
2023/10/19 04:10:44;;;;;;;26.95;13.25;;;4.10;99.90;;;;;;2621899;46;20891;31
2023/10/19 04:13:19;;;;;;;27.00;13.45;;;4.10;99.90;;;;;;2603506;54;20826;31
2023/10/19 04:15:54;;;;;;;26.45;12.90;;;4.10;99.90;;;;;;2701537;39;21478;31
2023/10/19 04:18:33;;;;;;;24.85;12.82;;;4.10;99.90;;;;;;2603456;54;20128;31
2023/10/19 04:21:08;;;;;;;27.93;11.80;;;4.10;99.90;;;;;;2603236;54;20042;31
2023/10/19 04:23:43;;;;;;;21.90;12.23;;;4.10;99.90;;;;;;2621742;46;20026;31
2023/10/19 04:26:18;;;;;;;23.30;12.60;;;4.20;99.90;;;;;;2603456;54;20085;31
2023/10/19 04:28:55;;;;;;;27.25;13.80;;;4.20;99.90;;;;;;2791880;31;21824;31
2023/10/19 04:31:30;;;;;;;27.77;13.52;;;4.20;99.90;;;;;;2603414;54;20038;31
2023/10/19 04:34:09;;;;;;;26.17;13.13;;;4.20;99.90;;;;;;2621444;46;20109;31
2023/10/19 04:36:44;;;;;;;24.10;13.10;;;4.30;99.90;;;;;;2603201;54;19961;31
2023/10/19 04:39:19;;;;;;;28.38;13.10;;;4.20;99.90;;;;;;2603547;54;20972;31
2023/10/19 04:41:55;;;;;;;24.73;13.55;;;4.30;99.90;;;;;;2622058;46;21656;31
2023/10/19 04:44:30;;;;;;;25.92;12.43;;;4.30;99.90;;;;;;2603238;54;20789;31
2023/10/19 04:50:12;;;;;;;25.08;13.88;;;4.30;99.90;;;;;;2603058;54;19982;31
2023/10/19 04:52:46;;;;;;;30.70;14.70;;;4.30;99.90;;;;;;2701507;39;21542;31
2023/10/19 04:55:22;;;;;;;24.35;13.30;;;4.40;99.90;;;;;;2603477;54;20037;31
2023/10/19 04:57:57;;;;;;;29.70;13.97;;;4.30;99.90;;;;;;2603192;54;20057;31
2023/10/19 05:00:33;;;;;;;29.05;14.45;;;4.40;99.90;;;;;;2603389;54;21070;31
2023/10/19 05:03:07;;;;;;;28.55;14.20;;;4.40;99.90;;;;;;2621952;46;20033;31
2023/10/19 05:05:45;;;;;;;26.17;14.18;;;4.40;99.90;;;;;;2621309;46;20026;31
2023/10/19 05:08:24;;;;;;;25.20;13.70;;;4.40;99.90;;;;;;2603000;54;20845;31
2023/10/19 05:10:59;;;;;;;27.13;14.88;;;4.40;99.90;;;;;;2603249;54;20077;31
2023/10/19 05:13:34;;;;;;;26.55;14.50;;;4.40;99.90;;;;;;2603281;54;20030;31
2023/10/19 05:16:11;;;;;;;27.65;15.40;;;4.40;99.90;;;;;;2603412;54;20038;31
2023/10/19 05:18:45;;;;;;;;;;;4.50;99.90;;;;;;2603533;54;20869;31
2023/10/19 05:21:25;;;;;;;26.58;14.10;;;4.50;99.90;;;;;;2621485;46;19942;31
2023/10/19 05:24:03;;;;;;;30.05;13.30;;;4.50;99.90;;;;;;2701684;39;21566;31
2023/10/19 05:26:37;;;;;;;29.92;14.52;;;4.50;99.90;;;;;;2603238;54;20031;31
2023/10/19 05:29:15;;;;;;;24.17;13.52;;;4.50;99.90;;;;;;2602794;54;20116;31
2023/10/19 05:31:53;;;;;;;31.67;14.32;;;4.50;99.90;;;;;;2603055;54;20049;31
2023/10/19 05:34:31;;;;;;;25.95;15.15;;;4.60;99.90;;;;;;2603317;54;20038;31
2023/10/19 05:37:29;;;;;;;31.45;15.30;;;4.60;99.90;;;;;;2621454;46;20046;31
2023/10/19 05:40:05;;;;;;;26.85;15.57;;;4.60;99.90;;;;;;2603347;54;20849;31
2023/10/19 05:42:41;;;;;;;28.50;14.80;;;4.60;99.90;;;;;;2603093;54;20118;31
2023/10/19 05:45:19;;;;;;;28.52;15.35;;;4.70;99.90;;;;;;2602880;54;20060;31
2023/10/19 05:47:54;;;;;;;37.85;18.35;;;4.70;99.90;;;;;;2602938;54;20030;31
2023/10/19 05:50:28;;;;;;;32.30;19.05;;;4.70;99.90;;;;;;2602912;54;22360;31
2023/10/19 05:53:18;;;;;;;43.20;26.65;;;4.70;99.90;;;;;;2606044;46;20029;31
2023/10/19 05:55:55;;;;;;;38.40;21.52;;;4.70;99.90;;;;;;2621607;46;20868;31
2023/10/19 05:58:30;;;;;;;;;;;4.80;99.90;;;;;;2603317;54;21556;31
2023/10/19 06:01:09;;;;;;;28.33;15.82;;;4.80;99.90;;;;;;2603105;54;19982;31
2023/10/19 06:03:46;;;;;;;26.45;14.77;;;4.80;99.90;;;;;;2603051;54;20077;31
2023/10/19 06:06:24;;;;;;;25.80;15.50;;;4.80;99.90;;;;;;2602824;54;20872;31
2023/10/19 06:09:04;;;;;;;29.00;15.77;;;4.90;99.90;;;;;;2602701;54;20026;31
2023/10/19 06:11:42;;;;;;;39.38;16.40;;;4.90;99.90;;;;;;2602893;54;20035;31
2023/10/19 06:14:20;;;;;;;36.17;19.48;;;4.90;99.90;;;;;;2602719;54;20027;31
2023/10/19 06:16:59;;;;;;;30.58;17.70;;;5.00;99.90;;;;;;2602995;54;20031;31
2023/10/19 06:19:38;;;;;;;39.55;21.27;;;5.00;99.90;;;;;;2603151;54;20026;31
2023/10/19 06:22:15;;;;;;;33.10;15.57;;;5.00;99.90;;;;;;2621145;47;20026;31
2023/10/19 06:24:54;;;;;;;31.83;18.08;;;5.00;99.90;;;;;;2602071;54;20042;31
2023/10/19 06:27:31;;;;;;;32.67;18.33;;;5.10;99.90;;;;;;2602923;54;20085;31
2023/10/19 06:30:10;;;;;;;27.75;15.05;;;5.10;99.90;;;;;;2700718;39;21494;31
2023/10/19 06:32:48;;;;;;;34.45;18.73;;;5.10;99.90;;;;;;2601807;54;20030;31
2023/10/19 06:35:25;;;;;;;31.70;16.95;;;5.20;99.90;;;;;;2602267;54;20030;31
2023/10/19 06:38:03;;;;;;;25.55;14.98;;;5.20;99.90;;;;;;2602812;54;20059;31
2023/10/19 06:40:45;;;;;;;28.77;14.07;;;5.20;99.90;;;;;;2622082;47;20027;31
2023/10/19 06:43:28;;;;;;;28.80;15.10;;;5.30;99.90;;;;;;2603616;54;20798;31
2023/10/19 06:48:46;;;;;;;28.05;15.80;;;5.40;99.90;;;;;;2622152;46;20035;31
2023/10/19 06:51:29;;;;;;;29.75;15.15;;;5.40;99.90;;;;;;2606394;46;20026;31
2023/10/19 06:54:08;;;;;;;26.30;15.65;;;5.50;99.90;;;;;;2602873;54;20572;31
2023/10/19 06:56:46;;;;;;;31.50;15.40;;;5.50;99.90;;;;;;2622192;46;20881;31
2023/10/19 06:59:23;;;;;;;27.20;14.35;;;5.50;99.90;;;;;;2603693;54;20081;31
2023/10/19 07:02:01;;;;;;;26.80;15.65;;;5.60;99.90;;;;;;2603525;54;21008;31
2023/10/19 07:04:42;;;;;;;24.83;13.23;;;5.60;99.90;;;;;;2720682;39;21507;31
2023/10/19 07:07:18;;;;;;;26.23;14.20;;;5.60;99.90;;;;;;2603595;54;20936;31
2023/10/19 07:09:55;;;;;;;25.70;13.23;;;5.60;99.90;;;;;;2602751;54;20042;31
2023/10/19 07:12:36;;;;;;;23.95;13.07;;;5.70;99.90;;;;;;2602895;54;20243;31
2023/10/19 07:15:18;;;;;;;24.27;13.60;;;5.80;99.90;;;;;;2603570;54;20042;31
2023/10/19 07:18:01;;;;;;;23.63;13.03;;;5.70;99.90;;;;;;2603638;54;20849;31
2023/10/19 07:20:38;;;;;;;27.98;13.77;;;5.80;99.90;;;;;;2603451;54;20034;31
2023/10/19 07:23:18;;;;;;;23.50;12.05;;;5.80;99.90;;;;;;2603487;54;20492;31
2023/10/19 07:25:59;;;;;;;25.75;13.25;;;5.80;99.90;;;;;;2603487;54;20111;31
2023/10/19 07:28:42;;;;;;;25.23;13.07;;;5.90;99.90;;;;;;2701216;39;21417;31
2023/10/19 07:31:18;;;;;;;24.67;12.68;;;5.90;99.90;;;;;;2602628;54;20040;31
2023/10/19 07:33:57;;;;;;;27.85;14.50;;;5.90;99.90;;;;;;2602849;54;20879;31
2023/10/19 07:36:37;;;;;;;25.75;13.25;;;6.00;99.90;;;;;;2603494;54;20034;31
2023/10/19 07:39:19;;;;;;;26.40;14.57;;;6.00;99.90;;;;;;2602911;54;20026;31
2023/10/19 07:41:56;;;;;;;26.60;13.40;;;6.00;99.90;;;;;;2603490;54;20027;31
2023/10/19 07:44:37;;;;;;;27.30;13.73;;;6.10;99.90;;;;;;2603544;54;20034;31
2023/10/19 07:47:16;;;;;;;26.88;15.80;;;6.20;99.90;;;;;;2603657;54;20026;31
2023/10/19 07:49:56;;;;;;;31.30;16.45;;;6.20;99.90;;;;;;2603765;46;20031;31
2023/10/19 07:52:38;;;;;;;26.20;14.43;;;6.30;99.90;;;;;;2602262;54;20085;31
2023/10/19 07:55:18;;;;;;;28.00;14.10;;;6.40;99.90;;;;;;2602431;54;22379;31
2023/10/19 07:57:59;;;;;;;26.15;13.20;;;6.40;99.90;;;;;;2602731;54;22362;31
2023/10/19 08:00:47;;;;;;;20.77;11.98;;;6.60;99.90;;;;;;2621786;46;20026;31
2023/10/19 08:03:26;;;;;;;26.52;13.82;;;6.60;99.90;;;;;;2603722;54;20027;31
2023/10/19 08:06:05;;;;;;;28.02;13.73;;;6.70;99.90;;;;;;2603463;54;20849;31
2023/10/19 08:08:45;;;;;;;25.05;13.27;;;6.80;99.90;;;;;;2603375;54;20030;31
2023/10/19 08:11:22;;;;;;;21.90;12.77;;;6.80;99.90;;;;;;2603345;54;20108;31
2023/10/19 08:14:00;;;;;;;24.58;13.95;;;6.80;99.90;;;;;;2603413;54;20048;31
2023/10/19 08:16:41;;;;;;;22.67;12.80;;;6.80;99.90;;;;;;2602524;54;20042;31
2023/10/19 08:19:18;;;;;;;26.70;14.35;;;6.80;99.90;;;;;;2603260;54;20933;31
2023/10/19 08:21:58;;;;;;;26.10;13.70;;;6.80;99.90;;;;;;2602727;54;20902;31
2023/10/19 08:24:35;;;;;;;27.73;13.27;;;6.80;99.90;;;;;;2615268;46;20861;31
2023/10/19 08:27:13;;;;;;;25.95;14.05;;;6.80;99.90;;;;;;2603498;54;20934;31
2023/10/19 08:29:55;;;;;;;26.10;14.57;;;6.80;99.90;;;;;;2603260;54;20053;31
2023/10/19 08:32:49;;;;;;;31.63;14.75;;;6.90;99.90;;;;;;2621883;46;20026;31
2023/10/19 08:35:30;;;;;;;28.50;15.07;;;6.90;99.90;;;;;;2621963;46;20031;31
2023/10/19 08:38:14;;;;;;;33.25;14.77;;;6.90;99.90;;;;;;2621804;46;20305;31
2023/10/19 08:40:52;;;;;;;32.40;15.70;;;6.90;99.90;;;;;;2603473;54;20038;31
2023/10/19 08:43:33;;;;;;;28.85;14.70;;;6.90;99.90;;;;;;2603355;54;20134;31
2023/10/19 08:52:22;;;;;;;28.95;15.70;;;7.00;99.90;;;;;;2601885;54;20894;31
2023/10/19 08:55:06;;;;;;;36.30;14.65;;;7.00;99.90;;;;;;2621741;46;20029;31
2023/10/19 08:57:48;;;;;;;33.50;15.73;;;7.00;99.90;;;;;;2603213;54;20057;31
2023/10/19 09:03:17;;;;;;;32.70;17.65;;;7.10;99.90;;;;;;2621597;46;20057;31
2023/10/19 09:05:58;;;;;;;51.35;23.42;;;7.10;99.90;;;;;;2602948;54;20064;31
2023/10/19 09:08:46;;;;;;;44.88;21.55;;;7.20;99.90;;;;;;2603223;54;20859;31
2023/10/19 09:11:26;;;;;;;38.90;22.15;;;7.20;99.90;;;;;;2603232;54;20128;31
2023/10/19 09:14:03;;;;;;;40.08;19.55;;;7.20;99.90;;;;;;2603033;54;20953;31
2023/10/19 09:16:42;;;;;;;31.47;17.00;;;7.30;99.90;;;;;;2602995;54;20144;31
2023/10/19 09:19:42;;;;;;;;;;;;;;;;;;;;;
2023/10/19 09:22:36;;;;;;;31.77;16.95;;;7.40;99.90;;;;;;2603078;54;19941;31
2023/10/19 09:25:16;;;;;;;29.95;15.90;;;7.40;99.90;;;;;;2617023;46;22458;31
2023/10/19 09:30:48;;;;;;;26.15;15.95;;;7.40;99.90;;;;;;2602472;54;20048;31
2023/10/19 09:42:30;;;;;;;30.45;16.52;;;7.40;99.90;;;;;;2601942;54;20038;31
2023/10/19 09:45:10;;;;;;;30.55;16.85;;;7.50;99.90;;;;;;2602198;54;20034;31
2023/10/19 09:47:50;;;;;;;34.30;17.60;;;7.40;99.90;;;;;;2602430;54;20870;31
2023/10/19 09:53:27;;;;;;;32.15;17.42;;;7.40;99.90;;;;;;2602342;54;20041;31
2023/10/19 09:59:02;;;;;;;33.57;19.67;;;7.50;99.90;;;;;;2602373;54;20966;31
2023/10/19 10:02:06;;;;;;;36.50;20.60;;;7.60;99.90;;;;;;2621336;46;20965;31
2023/10/19 10:04:48;;;;;;;36.60;17.85;;;7.60;99.90;;;;;;2621665;46;20805;31
2023/10/19 10:07:22;;;;;;;33.88;17.38;;;7.60;99.90;;;;;;2621173;46;20030;31
2023/10/19 10:10:10;;;;;;;30.25;17.30;;;7.70;99.90;;;;;;2603055;54;20819;31
2023/10/19 10:13:00;;;;;;;35.15;18.80;;;7.70;99.90;;;;;;2621814;47;20026;31
2023/10/19 10:15:46;;;;;;;35.50;19.50;;;7.70;99.90;;;;;;2603614;54;20944;31
2023/10/19 10:18:29;;;;;;;33.63;19.10;;;7.70;99.90;;;;;;2603505;54;20038;31
2023/10/19 10:21:16;;;;;;;29.93;17.77;;;7.70;99.90;;;;;;2603746;54;20085;31
2023/10/19 10:23:57;;;;;;;32.30;17.90;;;7.80;99.90;;;;;;2603869;54;20022;31
2023/10/19 10:29:42;;;;;;;31.95;18.10;;;7.80;99.90;;;;;;2622272;46;20345;31
2023/10/19 10:32:47;;;;;;;31.15;19.08;;;7.80;99.90;;;;;;2603786;54;20026;31
2023/10/19 10:35:43;;;;;;;30.35;17.23;;;7.90;99.90;;;;;;2622414;46;20801;31
2023/10/19 10:38:19;;;;;;;35.17;18.45;;;7.80;99.90;;;;;;2603800;54;20815;31
2023/10/19 10:41:25;;;;;;;29.02;16.77;;;7.80;99.90;;;;;;2603806;54;20883;31
2023/10/19 10:44:19;;;;;;;34.13;18.02;;;7.80;99.90;;;;;;2622176;46;20037;31
2023/10/19 10:47:13;;;;;;;26.33;17.10;;;7.90;99.90;;;;;;2603924;54;20876;31
2023/10/19 10:49:57;;;;;;;32.17;17.52;;;7.90;99.90;;;;;;2603645;54;20026;31
2023/10/19 10:56:01;;;;;;;33.65;18.10;;;7.90;99.90;;;;;;2622289;46;20026;31
2023/10/19 10:58:45;;;;;;;33.30;18.30;;;8.00;99.90;;;;;;2603765;54;20049;31
2023/10/19 11:04:31;;;;;;;42.03;21.37;;;7.90;99.90;;;;;;2604912;46;20049;31
2023/10/19 11:07:11;;;;;;;40.17;20.52;;;8.00;99.90;;;;;;2621513;46;20060;31
2023/10/19 11:10:02;;;;;;;39.22;20.95;;;7.90;99.90;;;;;;2603547;54;20026;31
2023/10/19 11:12:59;;;;;;;32.15;18.77;;;7.90;99.90;;;;;;2603692;54;20037;31
2023/10/19 11:15:38;;;;;;;39.75;19.80;;;7.90;99.90;;;;;;2603854;54;20863;31
2023/10/19 11:18:45;;;;;;;33.30;18.10;;;7.90;99.90;;;;;;2622402;46;20136;31
2023/10/19 11:21:28;;;;;;;36.15;19.60;;;7.90;99.90;;;;;;2603585;54;20965;31
2023/10/19 11:24:31;;;;;;;34.60;19.23;;;8.00;99.90;;;;;;2603676;54;20038;31
2023/10/19 11:27:10;;;;;;;32.20;17.80;;;8.00;99.90;;;;;;2602961;54;20896;31
2023/10/19 11:29:58;;;;;;;34.70;18.80;;;8.00;99.90;;;;;;2603666;54;20797;31
2023/10/19 11:32:44;;;;;;;34.67;19.17;;;8.00;99.90;;;;;;2603605;54;20031;31
2023/10/19 11:35:21;;;;;;;30.17;17.50;;;8.00;99.90;;;;;;2603716;54;20125;31
2023/10/19 11:37:56;;;;;;;;;;;8.00;99.90;;;;;;2602979;54;20073;31
2023/10/19 11:41:09;;;;;;;30.17;17.25;;;8.00;99.90;;;;;;2603552;54;20044;31
2023/10/19 11:44:04;;;;;;;32.13;17.52;;;8.00;99.90;;;;;;2603692;54;20953;31
2023/10/19 11:46:43;;;;;;;31.08;18.58;;;8.00;99.90;;;;;;2603370;54;20049;31
2023/10/19 11:49:35;;;;;;;32.30;19.23;;;8.10;99.90;;;;;;2603574;54;20793;31
2023/10/19 11:52:13;;;;;;;37.45;19.55;;;8.00;99.90;;;;;;2603194;54;19934;31
2023/10/19 11:55:05;;;;;;;36.40;19.53;;;8.00;99.90;;;;;;2603425;54;20052;31
2023/10/19 11:57:55;;;;;;;33.85;19.85;;;8.00;99.90;;;;;;2603543;54;20855;31
2023/10/19 12:06:36;;;;;;;30.17;17.42;;;8.10;99.90;;;;;;2603575;54;20059;31
2023/10/19 12:09:25;;;;;;;30.75;18.00;;;8.20;99.90;;;;;;2603693;54;20057;31
2023/10/19 12:12:05;;;;;;;30.07;17.53;;;8.20;99.90;;;;;;2603267;54;20030;31
2023/10/19 12:14:55;;;;;;;31.45;17.55;;;8.20;99.90;;;;;;2603431;54;20056;31
2023/10/19 12:17:34;;;;;;;32.38;17.45;;;8.20;99.90;;;;;;2602946;54;20973;31
2023/10/19 12:20:22;;;;;;;32.73;16.73;;;8.20;99.90;;;;;;2603383;54;20149;31
2023/10/19 12:23:16;;;;;;;30.63;17.45;;;8.20;99.90;;;;;;2621891;46;20030;31
2023/10/19 12:26:14;;;;;;;29.83;16.70;;;8.20;99.90;;;;;;2603557;54;20026;31
2023/10/19 12:29:11;;;;;;;27.77;16.15;;;8.30;99.90;;;;;;2603451;54;20258;31
2023/10/19 12:31:51;;;;;;;32.65;16.05;;;8.30;99.90;;;;;;2603280;54;20863;31
2023/10/19 12:34:33;;;;;;;27.42;15.63;;;8.30;99.90;;;;;;2603196;54;20909;31
2023/10/19 12:37:22;;;;;;;25.95;16.15;;;8.30;99.90;;;;;;2603201;54;20785;31
2023/10/19 12:40:26;;;;;;;26.85;15.45;;;8.40;99.90;;;;;;2603360;54;20832;31
2023/10/19 12:43:07;;;;;;;28.92;15.02;;;8.40;99.90;;;;;;2603191;54;20049;31
2023/10/19 12:45:43;;;;;;;28.00;15.80;;;8.40;99.90;;;;;;2603588;54;20034;31
2023/10/19 12:48:20;;;;;;;30.23;16.80;;;8.40;99.90;;;;;;2621706;46;20031;31
2023/10/19 12:54:03;;;;;;;27.90;16.25;;;8.50;99.90;;;;;;2603025;54;20034;31
2023/10/19 12:56:40;;;;;;;28.67;15.40;;;8.50;99.90;;;;;;2603418;54;20026;31
2023/10/19 12:59:18;;;;;;;28.45;15.30;;;8.50;99.90;;;;;;2621319;46;20101;31
2023/10/19 13:02:03;;;;;;;28.67;16.80;;;8.50;99.90;;;;;;2621320;46;20989;31
2023/10/19 13:04:42;;;;;;;28.80;15.65;;;8.50;99.90;;;;;;2603345;54;20929;31
2023/10/19 13:07:19;;;;;;;23.00;14.43;;;8.60;99.90;;;;;;2603326;54;20050;31
2023/10/19 13:10:09;;;;;;;27.80;15.15;;;8.60;99.90;;;;;;2621732;46;20866;31
2023/10/19 13:12:50;;;;;;;27.43;15.60;;;8.60;99.90;;;;;;2603178;54;20030;31
2023/10/19 13:15:38;;;;;;;28.25;16.35;;;8.60;99.90;;;;;;2603397;54;20026;31
2023/10/19 13:18:19;;;;;;;24.67;15.68;;;8.70;99.90;;;;;;2602580;54;20049;31
2023/10/19 13:20:56;;;;;;;26.55;16.38;;;8.70;99.90;;;;;;2603087;54;20054;31
2023/10/19 13:23:32;;;;;;;26.80;16.35;;;8.70;99.90;;;;;;2603172;54;20901;31
2023/10/19 13:26:20;;;;;;;25.75;15.32;;;8.70;99.90;;;;;;2603094;54;20887;31
2023/10/19 13:28:58;;;;;;;26.67;15.18;;;8.70;99.90;;;;;;2621264;46;20023;31
2023/10/19 13:31:37;;;;;;;27.10;15.25;;;8.80;99.90;;;;;;2603129;54;20745;31
2023/10/19 13:34:17;;;;;;;29.55;15.80;;;8.80;99.90;;;;;;2603218;54;20840;31
2023/10/19 13:36:52;;;;;;;29.60;16.20;;;8.80;99.90;;;;;;2621807;46;20037;31
2023/10/19 13:39:32;;;;;;;28.88;17.02;;;8.80;99.90;;;;;;2603064;54;20022;31
2023/10/19 13:42:14;;;;;;;27.63;15.85;;;8.80;99.90;;;;;;2602967;54;20924;31
2023/10/19 13:44:51;;;;;;;29.15;16.70;;;8.80;99.90;;;;;;2621750;46;20026;31
2023/10/19 13:47:33;;;;;;;31.83;16.30;;;8.80;99.90;;;;;;2621814;46;19945;31
2023/10/19 13:50:13;;;;;;;30.25;17.35;;;8.90;99.90;;;;;;2602832;54;20857;31
2023/10/19 13:52:50;;;;;;;29.00;15.75;;;8.90;99.90;;;;;;2602944;54;21015;31
2023/10/19 13:55:26;;;;;;;30.50;16.23;;;8.90;99.90;;;;;;2602953;54;20121;31
2023/10/19 13:58:10;;;;;;;30.25;15.75;;;8.90;99.90;;;;;;2603087;54;20297;31
2023/10/19 14:00:47;;;;;;;25.60;15.52;;;8.90;99.90;;;;;;2603014;54;20101;31
2023/10/19 14:03:25;;;;;;;28.67;16.98;;;8.90;99.90;;;;;;2603179;54;20089;31
2023/10/19 14:08:38;;;;;;;28.90;16.73;;;8.90;99.90;;;;;;2621605;46;20045;31
2023/10/19 14:11:17;;;;;;;27.40;16.90;;;9.00;99.90;;;;;;2602980;54;20035;31
2023/10/19 14:13:58;;;;;;;26.15;15.20;;;9.00;99.90;;;;;;2602417;54;20167;31
2023/10/19 14:16:34;;;;;;;31.23;16.13;;;9.00;99.90;;;;;;2603042;54;20889;31
2023/10/19 14:19:14;;;;;;;27.77;16.08;;;9.00;99.90;;;;;;2603046;54;20030;31
2023/10/19 14:21:52;;;;;;;29.90;16.65;;;9.00;99.90;;;;;;2602912;54;20956;31
2023/10/19 14:24:29;;;;;;;28.85;16.60;;;9.00;99.90;;;;;;2602459;54;20033;31
2023/10/19 14:27:14;;;;;;;30.70;16.95;;;9.00;99.90;;;;;;2602073;54;20056;31
2023/10/19 14:30:15;;;;;;;30.73;16.77;;;9.00;99.90;;;;;;2602437;54;20916;31
2023/10/19 14:32:54;;;;;;;29.80;17.60;;;9.10;99.90;;;;;;2621232;47;20026;31
2023/10/19 14:35:35;;;;;;;30.05;18.15;;;9.10;99.90;;;;;;2603059;54;20848;31
2023/10/19 14:40:48;;;;;;;35.60;19.02;;;9.00;99.90;;;;;;2602875;54;20049;31
2023/10/19 14:43:25;;;;;;;29.50;18.27;;;9.10;99.90;;;;;;2602747;54;20030;31
2023/10/19 14:46:07;;;;;;;32.58;18.13;;;9.10;99.90;;;;;;2602869;54;20030;31
2023/10/19 14:48:43;;;;;;;30.75;17.45;;;9.10;99.90;;;;;;2621173;47;20085;31
2023/10/19 14:51:20;;;;;;;36.90;18.20;;;9.00;99.90;;;;;;2602794;54;20037;31
2023/10/19 14:53:59;;;;;;;36.45;18.40;;;9.10;99.90;;;;;;2620799;47;20022;31
2023/10/19 14:56:36;;;;;;;35.28;18.77;;;9.10;99.90;;;;;;2603079;54;20783;31
2023/10/19 14:59:18;;;;;;;37.88;18.48;;;9.10;99.90;;;;;;2602805;54;20042;31
2023/10/19 15:02:00;;;;;;;36.28;19.52;;;9.10;99.90;;;;;;2602892;54;20049;31
2023/10/19 15:04:41;;;;;;;39.90;19.45;;;9.10;99.90;;;;;;2603874;46;20037;31